»·PEaware :: SWA387 KLAS-KSNA

SWA387 :: KLAS-KSNA

FLIGHT INFORMATION

Flight Status: Arrived
Operator:
Southwest Airlines
More flights by this operator :: More flights under this callsign
Pilot: Cody B. (17747)
Aircraft: BOEING 737-800
(B738)
More flights by this aircraft type
Origin: KLAS McCarran Intl
United States
Destination: KSNA John Wayne-Orange Co
United States
More flights between these airports :: More routes between these airports
Route: BOACH8 WHIGG FEYLA DSNEE4
File this flight plan on PilotEdge
Remarks: RMK / SIMBRIEF
Altitude:
(Current/Filed)
28,000ft
Speed:
(Current/Filed)
482kts
Departed: 19-May-20 12:34 PM
Arrived: 19-May-20 01:17 PM
Distance/Time
Traveled:
196nm/0:42
Distance/Time
To Go:
Arrived

Flight Plot

Page will automatically refresh every two minutes.


Map Options




Map Legend


Flown Route
Filed Route
Departure Airport
Arrival Airport
Navaid (VOR, NDB)
Fix

Horizontal Profiles

Position Reports

Time Latitude Longitude Heading Altitude Ground
Speed
19-May-20 11:42 36.080302 -115.147291 60 2102ft 0kts
19-May-20 11:43 36.080302 -115.147291 60 2102ft 0kts
19-May-20 11:44 36.080302 -115.147291 60 2102ft 0kts
19-May-20 11:45 36.080302 -115.147291 60 2102ft 0kts
19-May-20 11:46 36.080302 -115.147291 60 2102ft 0kts
19-May-20 11:47 36.080302 -115.147291 60 2102ft 0kts
19-May-20 11:48 36.080302 -115.147291 60 2102ft 0kts
19-May-20 11:49 36.080302 -115.147291 60 2102ft 0kts
19-May-20 11:50 36.080302 -115.147291 60 2102ft 0kts
19-May-20 11:51 36.080302 -115.147291 60 2102ft 0kts
19-May-20 11:52 36.080302 -115.147291 60 2102ft 0kts
19-May-20 11:53 36.080302 -115.147291 60 2102ft 0kts
19-May-20 11:54 36.080302 -115.147291 60 2102ft 0kts
19-May-20 11:55 36.080302 -115.147291 60 2102ft 0kts
19-May-20 11:56 36.080302 -115.147291 60 2102ft 0kts
19-May-20 11:57 36.080302 -115.147291 60 2102ft 0kts
19-May-20 11:58 36.080302 -115.147291 60 2102ft 0kts
19-May-20 11:59 36.080302 -115.147291 60 2102ft 0kts
19-May-20 12:00 36.080302 -115.147291 60 2102ft 0kts
19-May-20 12:01 36.080302 -115.147291 60 2102ft 0kts
19-May-20 12:02 36.080302 -115.147291 60 2102ft 0kts
19-May-20 12:03 36.080302 -115.147291 60 2102ft 0kts
19-May-20 12:04 36.080302 -115.147291 60 2102ft 0kts
19-May-20 12:05 36.080302 -115.147291 60 2102ft 0kts
19-May-20 12:06 36.080302 -115.147291 60 2102ft 0kts
19-May-20 12:07 36.080302 -115.147291 60 2102ft 0kts
19-May-20 12:08 36.080302 -115.147291 60 2102ft 0kts
19-May-20 12:09 36.080302 -115.147291 60 2102ft 0kts
19-May-20 12:10 36.080302 -115.147291 60 2102ft 0kts
19-May-20 12:11 36.080302 -115.147291 60 2102ft 0kts
19-May-20 12:12 36.080302 -115.147291 60 2102ft 0kts
19-May-20 12:13 36.080302 -115.147291 60 2102ft 0kts
19-May-20 12:14 36.080302 -115.147291 60 2102ft 0kts
19-May-20 12:15 36.080302 -115.147291 60 2102ft 0kts
19-May-20 12:16 36.080302 -115.147291 59 2102ft 0kts
19-May-20 12:17 36.080302 -115.147291 59 2102ft 0kts
19-May-20 12:18 36.080302 -115.147291 59 2102ft 0kts
19-May-20 12:19 36.080302 -115.147291 59 2102ft 0kts
19-May-20 12:20 36.080302 -115.147291 60 2102ft 0kts
19-May-20 12:21 36.080228 -115.147450 59 2103ft 2kts
19-May-20 12:22 36.080121 -115.148000 158 2105ft 0kts
19-May-20 12:23 36.080182 -115.148026 156 2104ft 0kts
19-May-20 12:24 36.080182 -115.148026 156 2104ft 0kts
19-May-20 12:25 36.080182 -115.148026 156 2104ft 0kts
19-May-20 12:26 36.079502 -115.147642 154 2105ft 7kts
19-May-20 12:27 36.078265 -115.142956 89 2091ft 21kts
19-May-20 12:28 36.078271 -115.135135 90 2068ft 27kts
19-May-20 12:29 36.078276 -115.127093 90 2047ft 21kts
19-May-20 12:30 36.077633 -115.121705 129 2041ft 9kts
19-May-20 12:31 36.077304 -115.121320 165 2041ft 0kts
19-May-20 12:32 36.076572 -115.121369 226 2042ft 4kts
19-May-20 12:33 36.076393 -115.137502 269 2105ft 162kts
19-May-20 12:34 36.077078 -115.195105 268 4991ft 194kts
19-May-20 12:35 36.057181 -115.263464 205 6969ft 268kts
19-May-20 12:36 35.986288 -115.294399 200 7015ft 278kts
19-May-20 12:37 35.909651 -115.309040 186 10695ft 291kts
19-May-20 12:38 35.821079 -115.311225 177 13364ft 333kts
19-May-20 12:39 35.728207 -115.301160 183 16842ft 340kts
19-May-20 12:40 35.644471 -115.340956 220 18898ft 339kts
19-May-20 12:41 35.579395 -115.427600 225 18907ft 338kts
19-May-20 12:42 35.515696 -115.513522 224 21016ft 337kts
19-May-20 12:43 35.453329 -115.597565 223 23944ft 334kts
19-May-20 12:44 35.392186 -115.679876 223 26141ft 341kts
19-May-20 12:45 35.326042 -115.768626 223 27912ft 349kts
19-May-20 12:46 35.262185 -115.854266 223 27962ft 359kts
19-May-20 12:47 35.191251 -115.947029 222 27957ft 365kts
19-May-20 12:48 35.120220 -116.036068 223 27962ft 367kts
19-May-20 12:49 35.049264 -116.125362 224 27967ft 367kts
19-May-20 12:50 34.978132 -116.214746 224 27969ft 367kts
19-May-20 12:51 34.906843 -116.304106 224 27967ft 368kts
19-May-20 12:52 34.836953 -116.392280 225 27994ft 367kts
19-May-20 12:53 34.768532 -116.479447 225 28017ft 345kts
19-May-20 12:54 34.702389 -116.563235 224 28030ft 330kts
19-May-20 12:55 34.630006 -116.637297 220 26311ft 341kts
19-May-20 12:56 34.559858 -116.705397 220 23671ft 323kts
19-May-20 12:57 34.492914 -116.772732 224 21300ft 314kts
19-May-20 12:58 34.430207 -116.845468 224 19136ft 313kts
19-May-20 12:59 34.368415 -116.917242 225 17121ft 324kts
19-May-20 13:00 34.304101 -116.991472 224 15084ft 331kts
19-May-20 13:01 34.232818 -117.058580 213 13972ft 338kts
19-May-20 13:02 34.153711 -117.112247 206 12996ft 333kts
19-May-20 13:04 34.068145 -117.157891 206 12981ft 337kts
19-May-20 13:05 33.988697 -117.210188 225 11743ft 324kts
19-May-20 13:06 33.933712 -117.283887 231 10564ft 301kts
19-May-20 13:07 33.880207 -117.359720 231 9361ft 277kts
19-May-20 13:08 33.831807 -117.429114 238 8260ft 264kts
19-May-20 13:09 33.824460 -117.511562 279 7092ft 256kts
19-May-20 13:10 33.833188 -117.596052 271 5837ft 256kts
19-May-20 13:11 33.833076 -117.680227 269 4594ft 255kts
19-May-20 13:12 33.829999 -117.760939 245 3335ft 243kts
19-May-20 13:13 33.779878 -117.802861 207 2200ft 202kts
19-May-20 13:14 33.740719 -117.827526 207 1602ft 140kts
19-May-20 13:15 33.707604 -117.848778 210 706ft 142kts
19-May-20 13:16 33.674827 -117.869397 208 67ft 108kts
19-May-20 13:17 33.669267 -117.871756 130 67ft 1kts
19-May-20 13:18 33.670441 -117.869561 40 67ft 18kts
19-May-20 13:19 33.674289 -117.866371 27 67ft 18kts
19-May-20 13:20 33.677018 -117.864627 28 67ft 7kts
19-May-20 13:20 33.677196 -117.863767 114 67ft 0kts
19-May-20 13:22 33.677179 -117.863726 115 67ft 0kts
19-May-20 13:23 33.677180 -117.863726 115 67ft 0kts
19-May-20 13:23 33.677179 -117.863726 115 67ft 0kts
19-May-20 13:24 33.677179 -117.863726 115 67ft 0kts
19-May-20 13:26 33.677179 -117.863726 115 67ft 0kts
19-May-20 13:26 33.677179 -117.863726 115 67ft 0kts
19-May-20 13:27 33.677180 -117.863726 115 67ft 0kts
19-May-20 13:28 33.677180 -117.863726 115 67ft 0kts
19-May-20 13:29 33.677179 -117.863726 115 67ft 0kts
19-May-20 13:30 33.677180 -117.863726 115 67ft 0kts

Navigation Log

Ident Type
Flight plan parsing failed, navigation log unavailable